Time;durP1;ratioP1;P1;durP2;ratioP2;P2;SDS_P1;SDS_P2;PMS_P1;PMS_P2;Temp;Humidity;BMP_temperature;BMP_pressure;BME280_temperature;BME280_humidity;BME280_pressure;Samples;Min_cycle;Max_cycle;Signal;HPM_P1;HPM_P2
2022/10/30 00:02:18;;;;;;;12.23;6.63;;;20.00;68.30;;;;;;4946213;28;20203;-96
2022/10/30 00:04:48;;;;;;;16.43;7.50;;;19.90;68.40;;;;;;4940383;29;20306;-94
2022/10/30 00:07:22;;;;;;;15.27;7.47;;;19.90;68.00;;;;;;4958746;28;20233;-95
2022/10/30 00:09:55;;;;;;;17.20;8.23;;;19.90;68.30;;;;;;4948236;29;20212;-95
2022/10/30 00:12:31;;;;;;;16.80;7.30;;;19.80;68.30;;;;;;4939919;28;20641;-94
2022/10/30 00:15:05;;;;;;;15.87;7.97;;;19.80;68.30;;;;;;4951031;29;20206;-96
2022/10/30 00:17:39;;;;;;;14.63;7.57;;;19.80;68.20;;;;;;4961048;28;20208;-94
2022/10/30 00:20:13;;;;;;;16.30;7.13;;;19.80;68.40;;;;;;4948121;28;20204;-96
2022/10/30 00:22:42;;;;;;;15.50;8.53;;;19.70;68.40;;;;;;4941068;29;20212;-95
2022/10/30 00:25:18;;;;;;;12.20;6.67;;;19.70;68.50;;;;;;4939986;29;20240;-95
2022/10/30 00:27:49;;;;;;;15.87;7.93;;;19.70;68.70;;;;;;4940643;28;20208;-95
2022/10/30 00:30:31;;;;;;;14.67;7.50;;;19.70;68.60;;;;;;4958944;29;20207;-94
2022/10/30 00:33:01;;;;;;;18.00;7.20;;;19.60;68.80;;;;;;4956990;29;20219;-95
2022/10/30 00:35:36;;;;;;;13.03;7.43;;;19.60;68.60;;;;;;4946343;28;20227;-95
2022/10/30 00:38:04;;;;;;;10.20;6.80;;;19.60;69.00;;;;;;4942797;28;20567;-95
2022/10/30 00:40:40;;;;;;;17.47;7.93;;;19.50;68.60;;;;;;4954521;28;20204;-96
2022/10/30 00:43:33;;;;;;;10.23;6.60;;;19.50;69.00;;;;;;4945556;28;20211;-96
2022/10/30 00:46:07;;;;;;;10.70;6.43;;;19.50;69.30;;;;;;5010177;28;20298;-95
2022/10/30 00:48:39;;;;;;;19.70;9.10;;;19.50;69.00;;;;;;4939716;29;20266;-94
2022/10/30 00:51:10;;;;;;;17.13;8.33;;;19.40;68.90;;;;;;5024440;28;20235;-95
2022/10/30 00:53:43;;;;;;;15.83;7.23;;;19.40;69.40;;;;;;4951559;28;20245;-95
2022/10/30 00:56:22;;;;;;;13.67;6.50;;;19.40;69.50;;;;;;4947608;29;20208;-96
2022/10/30 00:58:58;;;;;;;15.77;7.23;;;19.30;69.80;;;;;;4950732;28;20211;-94
2022/10/30 01:01:32;;;;;;;9.73;6.43;;;19.30;69.60;;;;;;4941463;28;20298;-94
2022/10/30 01:04:10;;;;;;;15.80;8.17;;;19.30;69.70;;;;;;4958181;28;20239;-96
2022/10/30 01:09:26;;;;;;;11.27;6.23;;;19.30;69.70;;;;;;4955032;29;20211;-96
2022/10/30 01:11:59;;;;;;;12.63;7.00;;;19.20;69.30;;;;;;4943035;28;20208;-94
2022/10/30 01:14:29;;;;;;;14.63;7.33;;;19.20;69.70;;;;;;4949319;28;20283;-96
2022/10/30 01:17:18;;;;;;;10.03;6.40;;;19.20;69.70;;;;;;4942363;28;20223;-96
2022/10/30 01:19:58;;;;;;;13.83;7.23;;;19.10;70.10;;;;;;4940350;28;20634;-96
2022/10/30 01:22:41;;;;;;;14.77;7.93;;;19.20;70.10;;;;;;4941238;28;20326;-96
2022/10/30 01:25:29;;;;;;;12.97;7.33;;;19.10;69.90;;;;;;4941720;29;20228;-96
2022/10/30 01:28:11;;;;;;;15.73;7.80;;;19.10;70.00;;;;;;4948835;28;20217;-96
2022/10/30 01:31:08;;;;;;;15.27;7.33;;;19.10;70.00;;;;;;4944839;28;20215;-96
2022/10/30 01:33:52;;;;;;;13.73;7.63;;;19.00;70.30;;;;;;4942833;29;20757;-96
2022/10/30 01:36:32;;;;;;;12.43;6.80;;;19.10;70.10;;;;;;4941615;28;20687;-96
2022/10/30 01:39:08;;;;;;;17.23;7.87;;;19.00;69.90;;;;;;4944659;28;20252;-95
2022/10/30 01:41:35;;;;;;;12.40;7.60;;;19.00;70.00;;;;;;4943244;28;20206;-96
2022/10/30 01:44:19;;;;;;;19.50;8.67;;;19.00;69.60;;;;;;4959351;29;20271;-95
2022/10/30 01:47:22;;;;;;;14.27;7.27;;;19.00;70.30;;;;;;4963605;28;20218;-95
2022/10/30 01:50:18;;;;;;;16.03;7.30;;;18.90;70.20;;;;;;4961988;28;20210;-94
2022/10/30 01:55:52;;;;;;;11.60;6.50;;;18.90;70.30;;;;;;4941397;29;20220;-94
2022/10/30 01:58:24;;;;;;;14.03;7.67;;;18.80;70.10;;;;;;4940950;29;20227;-95
2022/10/30 02:00:59;;;;;;;15.47;6.87;;;18.80;70.10;;;;;;4951507;28;20214;-95
2022/10/30 02:03:35;;;;;;;17.37;7.73;;;18.80;70.50;;;;;;4948311;28;20234;-95
2022/10/30 02:06:04;;;;;;;11.20;6.37;;;18.80;71.60;;;;;;4948585;29;20249;-96
2022/10/30 02:08:36;;;;;;;15.43;7.60;;;18.70;70.30;;;;;;4944006;29;20227;-96
2022/10/30 02:11:08;;;;;;;14.53;6.70;;;18.70;70.40;;;;;;4938475;28;20708;-96
2022/10/30 02:13:41;;;;;;;17.00;7.73;;;18.70;70.50;;;;;;4946042;28;20188;-95
2022/10/30 02:16:12;;;;;;;14.30;7.13;;;18.70;70.60;;;;;;4957485;28;20217;-95
2022/10/30 02:18:42;;;;;;;17.57;7.40;;;18.70;70.70;;;;;;4953530;29;20225;-95
2022/10/30 02:21:15;;;;;;;17.70;8.33;;;18.60;70.60;;;;;;4937004;28;20211;-95
2022/10/30 02:23:46;;;;;;;16.63;6.93;;;18.60;70.90;;;;;;4939440;28;20218;-95
2022/10/30 02:26:14;;;;;;;20.97;7.90;;;18.60;70.80;;;;;;4937268;28;20235;-94
2022/10/30 02:28:45;;;;;;;17.73;8.07;;;18.60;70.70;;;;;;4944332;29;20198;-96
2022/10/30 02:31:17;;;;;;;13.80;7.43;;;18.60;70.90;;;;;;4943004;28;20229;-94
2022/10/30 02:33:49;;;;;;;11.90;6.60;;;18.60;71.10;;;;;;4954218;28;20215;-95
2022/10/30 02:36:23;;;;;;;15.90;7.97;;;18.60;70.90;;;;;;4968544;28;20213;-95
2022/10/30 02:38:56;;;;;;;15.33;7.37;;;18.50;71.00;;;;;;4944231;29;20231;-96
2022/10/30 02:41:28;;;;;;;15.63;7.23;;;18.50;71.10;;;;;;4953517;29;20266;-96
2022/10/30 02:43:58;;;;;;;20.13;7.80;;;18.50;71.20;;;;;;4952110;28;20215;-96
2022/10/30 02:46:27;;;;;;;16.20;8.30;;;18.50;71.00;;;;;;4956662;28;20234;-95
2022/10/30 02:49:01;;;;;;;11.83;6.67;;;18.50;71.20;;;;;;4952508;28;20211;-96
2022/10/30 02:51:34;;;;;;;12.37;6.97;;;18.50;71.40;;;;;;4942203;28;20211;-96
2022/10/30 02:54:02;;;;;;;14.17;7.30;;;18.40;71.50;;;;;;4952567;28;20222;-94
2022/10/30 02:56:31;;;;;;;14.37;7.70;;;18.40;71.30;;;;;;5009162;28;20211;-96
2022/10/30 02:59:05;;;;;;;13.33;6.70;;;18.40;71.40;;;;;;4951348;28;20203;-96
2022/10/30 03:01:38;;;;;;;14.40;7.23;;;18.30;71.50;;;;;;4943780;28;20696;-96
2022/10/30 03:04:13;;;;;;;15.87;7.63;;;18.30;71.50;;;;;;4950837;28;20219;-96
2022/10/30 03:06:57;;;;;;;14.87;7.57;;;18.30;71.70;;;;;;4965379;28;20248;-95
2022/10/30 03:09:36;;;;;;;19.67;8.37;;;18.30;72.00;;;;;;4953921;29;20215;-96
2022/10/30 03:12:12;;;;;;;14.83;6.97;;;18.30;72.00;;;;;;4952923;29;20199;-95
2022/10/30 03:14:42;;;;;;;16.50;7.87;;;18.30;71.70;;;;;;4955980;28;20214;-96
2022/10/30 03:17:16;;;;;;;15.33;7.03;;;18.30;72.20;;;;;;4964581;29;20270;-96
2022/10/30 03:19:45;;;;;;;13.83;6.90;;;18.20;71.80;;;;;;4955726;29;20204;-96
2022/10/30 03:22:21;;;;;;;13.17;7.30;;;18.20;71.70;;;;;;4945688;28;20202;-95
2022/10/30 03:24:48;;;;;;;13.50;7.53;;;18.20;72.10;;;;;;4946474;29;20735;-96
2022/10/30 03:27:19;;;;;;;16.23;8.03;;;18.20;71.60;;;;;;4948967;28;20218;-96
2022/10/30 03:29:54;;;;;;;17.83;8.37;;;18.20;71.80;;;;;;4952950;29;20214;-96
2022/10/30 03:32:21;;;;;;;13.53;8.07;;;18.20;72.10;;;;;;4941451;28;20204;-95
2022/10/30 03:34:49;;;;;;;14.67;7.07;;;18.10;71.70;;;;;;4952621;29;20251;-95
2022/10/30 03:37:19;;;;;;;14.97;7.97;;;18.10;72.00;;;;;;4967423;28;20576;-95
2022/10/30 03:39:49;;;;;;;11.83;6.83;;;18.10;72.10;;;;;;4952061;29;20216;-94
2022/10/30 03:42:23;;;;;;;12.23;7.43;;;18.10;72.20;;;;;;4945949;29;20203;-95
2022/10/30 03:44:57;;;;;;;13.63;7.53;;;18.10;72.60;;;;;;4956050;29;20236;-95
2022/10/30 03:47:29;;;;;;;17.80;8.90;;;18.10;72.50;;;;;;4949125;28;20208;-96
2022/10/30 03:49:59;;;;;;;14.93;7.60;;;18.10;72.70;;;;;;4944742;29;20688;-94
2022/10/30 03:52:32;;;;;;;15.10;8.17;;;18.00;72.70;;;;;;4941858;28;20206;-94
2022/10/30 03:55:04;;;;;;;12.30;7.30;;;18.00;73.00;;;;;;5013791;28;20207;-95
2022/10/30 03:57:39;;;;;;;11.53;7.00;;;18.00;72.80;;;;;;4953018;28;20771;-96
2022/10/30 04:00:10;;;;;;;14.13;8.57;;;18.00;73.00;;;;;;4943690;28;20234;-96
2022/10/30 04:02:54;;;;;;;16.43;7.97;;;18.00;72.70;;;;;;4944876;29;20207;-96
2022/10/30 04:05:23;;;;;;;14.13;7.83;;;18.00;73.20;;;;;;4942752;29;20212;-96
2022/10/30 04:07:58;;;;;;;13.67;7.50;;;18.00;72.70;;;;;;4943117;28;20231;-96
2022/10/30 04:10:38;;;;;;;14.50;8.83;;;18.00;73.00;;;;;;4947641;28;20229;-96
2022/10/30 04:13:15;;;;;;;11.90;7.10;;;18.00;73.00;;;;;;4952161;29;20208;-94
2022/10/30 04:18:51;;;;;;;13.90;7.50;;;17.90;73.30;;;;;;4974832;22;20236;-95
2022/10/30 04:21:23;;;;;;;17.27;7.33;;;17.90;73.10;;;;;;4960985;28;20224;-95
2022/10/30 04:23:52;;;;;;;16.90;7.60;;;17.90;73.10;;;;;;4960231;28;20204;-95
2022/10/30 04:26:36;;;;;;;14.50;7.40;;;17.90;72.70;;;;;;4960267;28;20227;-96
2022/10/30 04:29:11;;;;;;;16.77;8.63;;;17.90;73.20;;;;;;4961938;28;20211;-94
2022/10/30 04:31:43;;;;;;;15.40;7.93;;;17.80;72.90;;;;;;4970821;28;20211;-95
2022/10/30 04:34:14;;;;;;;14.13;7.87;;;17.80;72.70;;;;;;4963706;28;20257;-94
2022/10/30 04:36:41;;;;;;;15.20;8.23;;;17.80;73.00;;;;;;4976343;28;20218;-95
2022/10/30 04:39:13;;;;;;;14.40;7.83;;;17.80;73.00;;;;;;5042524;28;20608;-95
2022/10/30 04:41:49;;;;;;;11.93;6.87;;;17.80;73.00;;;;;;4978453;28;20207;-95
2022/10/30 04:44:18;;;;;;;16.37;8.70;;;17.80;73.10;;;;;;4964939;28;20208;-95
2022/10/30 04:47:10;;;;;;;17.00;7.70;;;17.70;73.30;;;;;;4974053;28;20240;-94
2022/10/30 04:49:43;;;;;;;15.50;8.43;;;17.80;74.50;;;;;;4961149;28;20264;-95
2022/10/30 04:52:17;;;;;;;18.77;9.13;;;17.70;73.60;;;;;;4959848;28;20677;-95
2022/10/30 04:54:50;;;;;;;16.87;8.40;;;17.70;74.10;;;;;;4976958;28;20257;-94
2022/10/30 04:57:26;;;;;;;18.50;8.57;;;17.70;74.40;;;;;;4976707;28;20210;-95
2022/10/30 04:59:58;;;;;;;16.03;8.30;;;17.70;74.50;;;;;;4970495;28;20752;-95
2022/10/30 05:02:30;;;;;;;17.00;8.33;;;17.70;74.40;;;;;;4959555;28;20671;-96
2022/10/30 05:05:05;;;;;;;17.77;8.17;;;17.70;74.40;;;;;;4938964;29;20208;-95
2022/10/30 05:07:34;;;;;;;14.77;9.10;;;17.70;74.50;;;;;;4940543;29;20235;-95
2022/10/30 05:10:01;;;;;;;15.63;8.10;;;17.70;74.40;;;;;;4948912;29;20212;-96
2022/10/30 05:12:32;;;;;;;18.43;9.67;;;17.60;74.30;;;;;;4939846;28;20663;-96
2022/10/30 05:14:59;;;;;;;19.80;9.40;;;17.60;74.40;;;;;;4950561;28;20212;-96
2022/10/30 05:17:42;;;;;;;15.70;8.70;;;17.60;74.50;;;;;;4961905;28;20219;-96
2022/10/30 05:20:16;;;;;;;11.93;7.87;;;17.60;75.10;;;;;;4954056;28;20225;-96
2022/10/30 05:22:43;;;;;;;18.50;8.03;;;17.60;75.00;;;;;;4938591;29;20215;-96
2022/10/30 05:25:14;;;;;;;16.67;9.17;;;17.60;74.80;;;;;;5008987;28;20222;-95
2022/10/30 05:27:50;;;;;;;13.53;7.80;;;17.60;74.90;;;;;;4997074;28;20232;-94
2022/10/30 05:30:20;;;;;;;18.33;9.17;;;17.60;75.10;;;;;;4981075;28;20207;-96
2022/10/30 05:32:50;;;;;;;19.90;8.93;;;17.60;75.10;;;;;;4942069;28;20819;-95
2022/10/30 05:35:18;;;;;;;25.47;10.60;;;17.60;75.10;;;;;;4961886;28;20226;-96
2022/10/30 05:37:45;;;;;;;16.63;8.60;;;17.60;75.20;;;;;;4957194;28;20217;-96
2022/10/30 05:40:16;;;;;;;21.60;9.07;;;17.60;75.40;;;;;;4939714;28;20211;-96
2022/10/30 05:42:50;;;;;;;15.50;8.37;;;17.50;75.30;;;;;;4955608;29;20669;-96
2022/10/30 05:45:24;;;;;;;15.73;8.57;;;17.60;75.90;;;;;;4953911;28;20268;-95
2022/10/30 05:48:00;;;;;;;14.40;7.33;;;17.60;76.00;;;;;;4956070;28;20237;-95
2022/10/30 05:50:29;;;;;;;12.33;7.80;;;17.50;75.90;;;;;;4943834;28;20203;-96
2022/10/30 05:52:59;;;;;;;17.20;8.93;;;17.50;75.50;;;;;;4957628;29;20222;-96
2022/10/30 05:55:29;;;;;;;13.43;8.27;;;17.50;75.80;;;;;;4955997;28;20204;-96
2022/10/30 05:58:05;;;;;;;14.90;8.53;;;17.50;76.00;;;;;;4976125;28;20249;-95
2022/10/30 06:00:43;;;;;;;13.33;7.37;;;17.50;76.30;;;;;;4938830;29;20218;-95
2022/10/30 06:03:22;;;;;;;14.73;8.50;;;17.50;76.00;;;;;;4947257;29;20230;-96
2022/10/30 06:05:50;;;;;;;14.77;7.93;;;17.50;76.70;;;;;;4937922;28;20200;-96
2022/10/30 06:08:30;;;;;;;12.53;7.40;;;17.50;75.90;;;;;;4936028;29;20209;-95
2022/10/30 06:10:59;;;;;;;17.87;9.40;;;17.50;76.30;;;;;;4953021;28;20244;-96
2022/10/30 06:13:28;;;;;;;18.37;8.03;;;17.50;76.40;;;;;;4951341;28;20645;-96
2022/10/30 06:15:58;;;;;;;20.80;9.57;;;17.50;76.70;;;;;;4936702;28;20218;-95
2022/10/30 06:18:26;;;;;;;21.10;8.97;;;17.50;76.70;;;;;;4952064;28;20221;-94
2022/10/30 06:20:59;;;;;;;14.00;7.53;;;17.50;76.70;;;;;;4941279;28;20208;-94
2022/10/30 06:23:29;;;;;;;17.53;8.40;;;17.50;77.10;;;;;;4951757;28;20279;-94
2022/10/30 06:25:57;;;;;;;15.50;7.83;;;17.50;76.80;;;;;;4949820;28;20207;-94
2022/10/30 06:28:30;;;;;;;22.07;9.60;;;17.50;76.70;;;;;;4951336;28;20205;-94
2022/10/30 06:30:57;;;;;;;16.07;7.97;;;17.50;77.00;;;;;;4962648;29;20206;-94
2022/10/30 06:33:25;;;;;;;16.47;8.40;;;17.50;76.80;;;;;;4958259;28;20206;-96
2022/10/30 06:35:55;;;;;;;15.37;7.97;;;17.50;76.90;;;;;;4942321;29;20234;-96
2022/10/30 06:38:23;;;;;;;17.43;8.33;;;17.50;77.30;;;;;;4946678;28;20726;-96
2022/10/30 06:40:50;;;;;;;15.37;7.53;;;17.40;77.00;;;;;;5034542;28;20202;-96
2022/10/30 06:43:17;;;;;;;14.73;7.97;;;17.50;77.20;;;;;;5004762;28;20217;-94
2022/10/30 06:45:50;;;;;;;22.40;9.73;;;17.40;77.30;;;;;;4946680;28;20284;-94
2022/10/30 06:48:23;;;;;;;16.23;8.47;;;17.40;77.70;;;;;;4942370;28;20211;-93
2022/10/30 06:50:55;;;;;;;18.90;8.60;;;17.40;77.70;;;;;;4938070;28;20207;-94
2022/10/30 06:53:23;;;;;;;12.80;7.30;;;17.40;77.80;;;;;;4952287;29;20275;-96
2022/10/30 06:55:57;;;;;;;23.17;9.53;;;17.40;77.80;;;;;;4955219;28;20212;-95
2022/10/30 06:58:26;;;;;;;15.13;7.97;;;17.40;78.50;;;;;;4953426;28;20223;-94
2022/10/30 07:01:00;;;;;;;14.03;7.53;;;17.40;78.30;;;;;;4951598;28;20256;-95
2022/10/30 07:03:27;;;;;;;20.40;8.70;;;17.40;78.70;;;;;;4953865;29;20717;-94
2022/10/30 07:05:55;;;;;;;16.43;8.00;;;17.40;78.40;;;;;;4933211;28;20212;-94
2022/10/30 07:08:23;;;;;;;15.40;8.00;;;17.40;78.70;;;;;;4951436;28;20273;-94
2022/10/30 07:10:51;;;;;;;20.60;8.73;;;17.40;78.70;;;;;;4933314;28;20649;-94
2022/10/30 07:13:19;;;;;;;15.47;9.03;;;17.40;78.80;;;;;;4952469;28;20227;-95
2022/10/30 07:15:48;;;;;;;17.57;8.27;;;17.40;79.00;;;;;;4937650;28;20627;-93
2022/10/30 07:18:17;;;;;;;22.07;9.20;;;17.40;79.30;;;;;;4945064;28;20218;-95
2022/10/30 07:20:45;;;;;;;18.90;8.63;;;17.40;79.50;;;;;;4953914;28;20272;-94
2022/10/30 07:23:12;;;;;;;19.17;9.07;;;17.50;79.60;;;;;;4943045;28;20307;-94
2022/10/30 07:25:41;;;;;;;19.13;8.90;;;17.40;79.40;;;;;;4944318;28;20206;-94
2022/10/30 07:28:08;;;;;;;16.10;7.83;;;17.50;79.60;;;;;;4943001;28;20337;-93
2022/10/30 07:30:35;;;;;;;17.60;8.80;;;17.40;79.40;;;;;;4946928;28;20221;-93
2022/10/30 07:33:10;;;;;;;12.63;7.03;;;17.40;79.50;;;;;;4943821;29;20650;-95
2022/10/30 07:35:44;;;;;;;14.30;7.87;;;17.50;80.50;;;;;;4934973;29;20210;-94
2022/10/30 07:38:16;;;;;;;15.93;8.30;;;17.50;80.50;;;;;;4951634;29;20545;-94
2022/10/30 07:40:52;;;;;;;18.53;8.57;;;17.50;80.50;;;;;;4951705;29;20234;-94
2022/10/30 07:43:20;;;;;;;13.23;7.00;;;17.50;80.90;;;;;;5008169;28;20264;-94
2022/10/30 07:45:53;;;;;;;15.07;7.67;;;17.50;80.40;;;;;;4968233;28;20216;-95
2022/10/30 07:48:27;;;;;;;19.27;9.07;;;17.60;81.20;;;;;;4944833;29;20292;-95
2022/10/30 07:51:08;;;;;;;23.17;9.17;;;17.60;81.60;;;;;;4955675;28;20207;-95
2022/10/30 07:53:40;;;;;;;18.20;8.40;;;17.60;82.20;;;;;;4956850;28;20237;-94
2022/10/30 07:56:08;;;;;;;16.40;8.70;;;17.60;81.80;;;;;;4948744;28;20200;-93
2022/10/30 07:58:36;;;;;;;17.33;8.17;;;17.60;81.40;;;;;;4934455;29;20259;-94
2022/10/30 08:01:04;;;;;;;23.90;9.80;;;17.70;81.80;;;;;;4940298;28;20221;-94
2022/10/30 08:03:31;;;;;;;20.37;9.93;;;17.70;81.80;;;;;;4940900;28;20258;-94
2022/10/30 08:05:58;;;;;;;19.23;7.87;;;17.70;82.10;;;;;;4949042;28;20230;-93
2022/10/30 08:08:27;;;;;;;19.93;8.50;;;17.80;82.40;;;;;;4948849;28;20250;-93
2022/10/30 08:11:03;;;;;;;19.03;8.50;;;17.80;82.70;;;;;;4952643;29;20578;-93
2022/10/30 08:13:30;;;;;;;15.87;7.87;;;17.80;83.20;;;;;;4949284;28;20297;-92
2022/10/30 08:16:01;;;;;;;21.83;9.93;;;17.90;82.70;;;;;;4939350;28;20645;-91
2022/10/30 08:18:28;;;;;;;17.10;7.43;;;18.00;83.20;;;;;;4935110;28;20457;-92
2022/10/30 08:20:56;;;;;;;17.67;8.17;;;17.90;82.70;;;;;;4941772;28;20906;-93
2022/10/30 08:23:24;;;;;;;17.03;7.93;;;18.00;83.00;;;;;;4950011;28;20618;-92
2022/10/30 08:25:53;;;;;;;12.83;7.67;;;18.10;83.10;;;;;;4951898;29;20619;-93
2022/10/30 08:28:20;;;;;;;23.40;9.77;;;18.10;83.20;;;;;;4940126;28;20699;-94
2022/10/30 08:30:51;;;;;;;18.53;7.77;;;18.10;83.00;;;;;;4941380;28;20235;-93
2022/10/30 08:33:19;;;;;;;19.67;8.67;;;18.20;83.10;;;;;;4951742;28;20253;-93
2022/10/30 08:35:52;;;;;;;16.70;7.23;;;18.30;83.20;;;;;;4955760;28;20208;-94
2022/10/30 08:38:26;;;;;;;15.97;8.23;;;18.30;83.50;;;;;;4954414;28;20215;-94
2022/10/30 08:40:55;;;;;;;14.63;7.83;;;18.40;83.90;;;;;;4934547;29;20258;-95
2022/10/30 08:43:29;;;;;;;15.30;7.53;;;18.40;83.50;;;;;;4935392;29;20210;-95
2022/10/30 08:46:00;;;;;;;23.30;9.23;;;18.50;83.70;;;;;;4961196;28;20958;-95
2022/10/30 08:48:29;;;;;;;17.17;8.10;;;18.50;83.40;;;;;;4952488;28;21070;-96
2022/10/30 08:51:09;;;;;;;15.33;7.60;;;18.50;83.30;;;;;;4938491;28;20212;-95
2022/10/30 08:53:43;;;;;;;12.87;7.77;;;18.60;83.50;;;;;;4961513;28;20209;-93
2022/10/30 08:56:15;;;;;;;12.77;7.33;;;18.70;83.60;;;;;;4940240;28;20212;-93
2022/10/30 09:01:24;;;;;;;20.03;8.73;;;18.90;83.70;;;;;;4960316;28;20258;-93
2022/10/30 09:03:54;;;;;;;22.23;9.67;;;18.90;83.60;;;;;;4956936;28;20285;-95
2022/10/30 09:06:23;;;;;;;17.17;7.60;;;19.00;83.70;;;;;;4949038;28;20242;-93
2022/10/30 09:08:56;;;;;;;17.73;8.43;;;19.10;83.80;;;;;;4952110;28;20238;-93
2022/10/30 09:11:25;;;;;;;18.07;8.63;;;19.10;83.90;;;;;;4958385;28;20196;-92
2022/10/30 09:13:54;;;;;;;19.47;8.30;;;19.20;84.40;;;;;;4946326;28;20676;-93
2022/10/30 09:16:22;;;;;;;14.33;8.40;;;19.40;84.40;;;;;;4944895;28;20238;-92
2022/10/30 09:18:52;;;;;;;10.53;6.73;;;19.50;84.70;;;;;;4937068;28;20216;-94
2022/10/30 09:21:19;;;;;;;16.87;7.63;;;19.70;84.00;;;;;;4935519;29;20630;-93
2022/10/30 09:23:49;;;;;;;20.37;8.53;;;19.80;83.20;;;;;;4946872;28;20201;-94
2022/10/30 09:26:37;;;;;;;12.03;6.73;;;19.90;83.60;;;;;;4947810;28;20253;-95
2022/10/30 09:29:06;;;;;;;14.00;7.23;;;20.00;83.90;;;;;;4947623;28;20209;-94
2022/10/30 09:31:34;;;;;;;15.47;7.47;;;20.20;83.20;;;;;;5008587;28;20639;-94
2022/10/30 09:34:04;;;;;;;12.93;7.10;;;20.30;81.70;;;;;;4947606;28;20262;-95
2022/10/30 09:36:33;;;;;;;16.33;8.10;;;20.50;81.70;;;;;;4947382;29;20251;-95
2022/10/30 09:39:02;;;;;;;17.70;8.00;;;20.60;81.30;;;;;;4954981;28;20215;-93
2022/10/30 09:41:47;;;;;;;18.33;7.53;;;20.70;80.70;;;;;;4950559;28;20204;-94
2022/10/30 09:44:34;;;;;;;12.90;6.57;;;20.90;80.30;;;;;;4952923;28;20204;-93
2022/10/30 09:47:20;;;;;;;13.60;6.60;;;21.10;79.70;;;;;;4966815;28;20697;-96
2022/10/30 09:53:18;;;;;;;11.57;6.90;;;21.30;78.00;;;;;;4953704;28;20215;-94
2022/10/30 09:56:01;;;;;;;12.63;7.27;;;21.50;77.20;;;;;;4955763;28;20224;-93
2022/10/30 09:58:37;;;;;;;12.00;6.93;;;21.60;77.40;;;;;;4936803;29;20645;-93
2022/10/30 10:01:17;;;;;;;13.83;6.60;;;21.70;76.00;;;;;;4954454;28;20698;-95
2022/10/30 10:03:58;;;;;;;10.43;5.90;;;21.90;75.40;;;;;;4933562;29;20232;-94
2022/10/30 10:06:26;;;;;;;15.00;6.53;;;22.00;75.40;;;;;;4937299;29;20909;-93
2022/10/30 10:08:58;;;;;;;16.63;6.83;;;22.10;75.50;;;;;;4950191;29;20721;-94
2022/10/30 10:11:29;;;;;;;14.13;6.80;;;22.10;74.70;;;;;;4937090;29;20221;-94
2022/10/30 10:14:00;;;;;;;12.30;6.13;;;22.20;74.40;;;;;;4995266;28;20200;-94
2022/10/30 10:16:36;;;;;;;14.23;6.90;;;22.30;73.70;;;;;;4966830;28;20320;-94
2022/10/30 10:19:14;;;;;;;7.03;5.40;;;22.30;73.40;;;;;;4935166;28;20220;-94
2022/10/30 10:22:09;;;;;;;11.83;6.47;;;22.30;72.90;;;;;;4951920;29;20199;-94
2022/10/30 10:24:46;;;;;;;14.80;7.30;;;22.40;73.60;;;;;;4936792;28;20214;-93
2022/10/30 10:27:27;;;;;;;9.97;5.73;;;22.50;73.00;;;;;;4946546;28;20211;-94
2022/10/30 10:30:01;;;;;;;10.30;5.17;;;22.50;72.50;;;;;;4957088;29;20211;-96
2022/10/30 10:33:13;;;;;;;11.40;5.40;;;22.60;73.00;;;;;;4953749;28;20206;-96
2022/10/30 10:36:07;;;;;;;7.07;4.93;;;22.60;71.80;;;;;;4974849;28;20252;-95
2022/10/30 10:38:54;;;;;;;9.00;4.37;;;22.70;71.60;;;;;;4944908;29;20683;-95
2022/10/30 10:41:36;;;;;;;8.87;4.03;;;22.70;70.90;;;;;;4935068;29;20204;-94
2022/10/30 10:44:20;;;;;;;12.50;5.30;;;22.80;70.80;;;;;;4936215;29;20222;-93
2022/10/30 10:47:08;;;;;;;7.37;4.70;;;22.80;71.00;;;;;;4934951;28;20221;-94
2022/10/30 10:49:58;;;;;;;12.53;4.90;;;22.90;70.50;;;;;;4940097;28;20208;-93
2022/10/30 10:52:37;;;;;;;10.90;5.43;;;22.90;70.30;;;;;;4941394;29;20237;-94
2022/10/30 10:55:11;;;;;;;10.37;4.83;;;22.90;70.30;;;;;;4950829;28;20207;-94
2022/10/30 10:57:43;;;;;;;13.70;6.33;;;22.90;70.40;;;;;;4946224;28;20211;-94
2022/10/30 11:00:21;;;;;;;12.33;5.80;;;22.90;70.20;;;;;;4955691;28;20240;-94
2022/10/30 11:02:59;;;;;;;8.87;4.47;;;23.00;69.70;;;;;;4958262;28;20233;-94
2022/10/30 11:05:38;;;;;;;11.83;5.33;;;23.00;69.70;;;;;;4954395;28;20209;-94
2022/10/30 11:08:15;;;;;;;11.93;5.40;;;23.00;69.10;;;;;;4945695;28;20228;-94
2022/10/30 11:10:42;;;;;;;5.97;3.73;;;23.00;68.90;;;;;;5014035;28;20301;-96
2022/10/30 11:13:12;;;;;;;9.47;4.40;;;23.00;69.60;;;;;;4940267;28;20246;-94
2022/10/30 11:15:54;;;;;;;19.93;8.00;;;23.00;68.90;;;;;;4948515;28;20199;-95
2022/10/30 11:18:23;;;;;;;7.83;3.97;;;23.00;68.30;;;;;;4945236;28;20738;-94
2022/10/30 11:20:59;;;;;;;12.37;5.83;;;23.00;68.80;;;;;;4941577;28;21070;-95
2022/10/30 11:23:42;;;;;;;6.43;3.60;;;23.00;68.90;;;;;;4941107;28;20207;-95
2022/10/30 11:26:31;;;;;;;11.53;5.53;;;22.90;68.80;;;;;;4947744;28;20210;-95
2022/10/30 11:29:07;;;;;;;12.40;5.40;;;22.90;68.90;;;;;;4956900;28;20224;-96
2022/10/30 11:31:42;;;;;;;7.07;4.03;;;22.90;69.00;;;;;;4960137;29;20672;-96
2022/10/30 11:34:31;;;;;;;12.67;4.53;;;22.90;69.50;;;;;;4957881;29;20610;-96
2022/10/30 11:37:02;;;;;;;10.97;4.43;;;23.00;68.20;;;;;;4957676;29;20664;-95
2022/10/30 11:39:42;;;;;;;8.27;3.93;;;23.00;68.70;;;;;;4956092;29;20214;-96
2022/10/30 11:42:17;;;;;;;10.00;4.37;;;23.00;67.90;;;;;;4958516;28;20648;-96
2022/10/30 11:44:48;;;;;;;8.47;4.10;;;23.00;67.50;;;;;;4950665;29;20196;-96
2022/10/30 11:47:17;;;;;;;10.73;4.67;;;23.00;68.30;;;;;;4942407;29;20207;-96
2022/10/30 11:49:53;;;;;;;10.00;4.27;;;23.00;67.90;;;;;;4939683;28;20680;-95
2022/10/30 11:52:28;;;;;;;8.20;3.87;;;23.00;67.50;;;;;;4937984;29;20238;-95
2022/10/30 11:55:08;;;;;;;10.77;3.53;;;23.00;68.20;;;;;;4945496;28;20211;-96
2022/10/30 11:57:44;;;;;;;8.87;4.10;;;23.00;67.40;;;;;;4948453;28;20230;-96
2022/10/30 12:00:18;;;;;;;6.27;3.80;;;23.10;68.20;;;;;;4938372;29;20216;-96
2022/10/30 12:02:54;;;;;;;7.87;3.73;;;23.00;68.00;;;;;;4938484;29;20239;-96
2022/10/30 12:05:41;;;;;;;6.30;3.27;;;23.10;68.10;;;;;;4952496;29;20213;-94
2022/10/30 12:08:28;;;;;;;7.13;3.63;;;23.10;67.70;;;;;;4959848;28;20303;-95
2022/10/30 12:11:06;;;;;;;9.20;3.77;;;23.20;67.70;;;;;;4945629;28;20228;-96
2022/10/30 12:13:44;;;;;;;7.80;3.63;;;23.30;68.00;;;;;;4939043;29;20218;-95
2022/10/30 12:16:20;;;;;;;5.87;2.67;;;23.40;68.30;;;;;;4954353;29;20915;-95
2022/10/30 12:19:03;;;;;;;9.17;4.00;;;23.50;67.70;;;;;;4951878;28;20295;-95
2022/10/30 12:21:45;;;;;;;7.33;2.50;;;23.60;67.60;;;;;;4962989;29;20289;-96
2022/10/30 12:24:20;;;;;;;6.03;2.93;;;23.70;67.40;;;;;;5022601;28;20656;-96
2022/10/30 12:27:02;;;;;;;11.97;3.97;;;23.80;67.40;;;;;;4947952;28;20208;-96
2022/10/30 12:29:43;;;;;;;7.73;3.40;;;24.00;67.70;;;;;;4957813;28;20223;-95
2022/10/30 12:32:18;;;;;;;8.00;3.30;;;24.10;66.50;;;;;;4953350;28;20188;-96
2022/10/30 12:34:50;;;;;;;7.47;2.83;;;24.20;66.20;;;;;;4947018;29;20270;-96
2022/10/30 12:40:16;;;;;;;7.40;2.80;;;24.40;65.20;;;;;;4970859;28;20208;-95
2022/10/30 12:42:58;;;;;;;6.50;2.83;;;24.40;64.20;;;;;;4960965;28;20262;-94
2022/10/30 12:45:32;;;;;;;8.53;2.80;;;24.40;63.60;;;;;;4938063;28;20311;-96
2022/10/30 12:48:21;;;;;;;5.53;2.40;;;24.50;63.90;;;;;;4937082;28;20232;-93
2022/10/30 12:51:04;;;;;;;14.17;3.33;;;24.60;63.50;;;;;;4947759;28;20273;-94
2022/10/30 12:53:42;;;;;;;6.73;2.73;;;24.60;63.10;;;;;;4968093;28;20214;-95
2022/10/30 12:56:21;;;;;;;7.47;2.63;;;24.60;63.30;;;;;;5004697;28;20207;-95
2022/10/30 12:59:29;;;;;;;8.10;3.17;;;24.50;63.60;;;;;;4961767;29;20216;-95
2022/10/30 13:02:08;;;;;;;6.97;2.83;;;24.40;62.90;;;;;;4960509;29;20254;-94
2022/10/30 13:04:40;;;;;;;10.23;2.50;;;24.30;62.60;;;;;;4954098;29;20203;-96
2022/10/30 13:07:23;;;;;;;8.93;2.43;;;24.30;62.70;;;;;;4962396;28;20235;-95
2022/10/30 13:10:03;;;;;;;9.03;2.73;;;24.20;62.70;;;;;;4960569;29;20220;-95
2022/10/30 13:15:30;;;;;;;9.50;2.67;;;23.90;63.30;;;;;;5044621;28;20200;-95
2022/10/30 13:18:17;;;;;;;7.97;3.00;;;23.80;63.60;;;;;;5010823;28;20207;-95
2022/10/30 13:21:00;;;;;;;6.90;2.67;;;23.70;63.10;;;;;;5063537;28;20210;-94
2022/10/30 13:23:43;;;;;;;7.57;2.73;;;23.60;63.40;;;;;;5064881;28;20202;-96
2022/10/30 13:26:37;;;;;;;6.43;2.67;;;23.40;63.50;;;;;;5003681;28;20230;-95
2022/10/30 13:29:22;;;;;;;5.43;1.77;;;23.30;63.50;;;;;;4957339;29;20231;-95
2022/10/30 13:32:27;;;;;;;6.03;2.60;;;23.20;63.70;;;;;;4963523;28;20238;-95
2022/10/30 13:35:11;;;;;;;10.50;2.97;;;23.10;63.50;;;;;;4948652;28;20204;-95
2022/10/30 13:37:48;;;;;;;10.33;3.37;;;23.00;63.90;;;;;;4945196;29;20196;-94